sensor_id;sensor_type;location;lat;lon;timestamp;temperature;humidity
2571;DHT22;1295;51.130;6.732;2024-01-27T00:01:43;8.20;99.90
2571;DHT22;1295;51.130;6.732;2024-01-27T00:04:09;7.80;99.90
2571;DHT22;1295;51.130;6.732;2024-01-27T00:06:35;7.80;99.90
2571;DHT22;1295;51.130;6.732;2024-01-27T00:09:00;8.00;99.90
2571;DHT22;1295;51.130;6.732;2024-01-27T00:11:26;8.20;99.90
2571;DHT22;1295;51.130;6.732;2024-01-27T00:13:52;8.30;99.90
2571;DHT22;1295;51.130;6.732;2024-01-27T00:16:18;8.30;99.90
2571;DHT22;1295;51.130;6.732;2024-01-27T00:18:44;8.30;99.90
2571;DHT22;1295;51.130;6.732;2024-01-27T00:21:09;8.00;99.90
2571;DHT22;1295;51.130;6.732;2024-01-27T00:23:35;7.90;99.90
2571;DHT22;1295;51.130;6.732;2024-01-27T00:26:01;7.80;99.90
2571;DHT22;1295;51.130;6.732;2024-01-27T00:28:26;8.00;99.90
2571;DHT22;1295;51.130;6.732;2024-01-27T00:30:52;7.50;99.90
2571;DHT22;1295;51.130;6.732;2024-01-27T00:33:17;8.00;99.90
2571;DHT22;1295;51.130;6.732;2024-01-27T00:35:43;7.90;99.90
2571;DHT22;1295;51.130;6.732;2024-01-27T00:38:09;7.70;99.90
2571;DHT22;1295;51.130;6.732;2024-01-27T00:40:34;7.90;99.90
2571;DHT22;1295;51.130;6.732;2024-01-27T00:43:02;8.10;99.90
2571;DHT22;1295;51.130;6.732;2024-01-27T00:45:26;8.00;99.90
2571;DHT22;1295;51.130;6.732;2024-01-27T00:47:52;7.70;99.90
2571;DHT22;1295;51.130;6.732;2024-01-27T00:50:18;7.70;99.90
2571;DHT22;1295;51.130;6.732;2024-01-27T00:52:43;8.00;99.90
2571;DHT22;1295;51.130;6.732;2024-01-27T00:55:10;8.20;99.90
2571;DHT22;1295;51.130;6.732;2024-01-27T00:57:36;8.10;99.90
2571;DHT22;1295;51.130;6.732;2024-01-27T01:00:07;8.20;99.90
2571;DHT22;1295;51.130;6.732;2024-01-27T01:02:33;8.30;99.90
2571;DHT22;1295;51.130;6.732;2024-01-27T01:04:58;8.30;99.90
2571;DHT22;1295;51.130;6.732;2024-01-27T01:07:24;8.30;99.90
2571;DHT22;1295;51.130;6.732;2024-01-27T01:09:50;8.30;99.90
2571;DHT22;1295;51.130;6.732;2024-01-27T01:12:15;8.30;99.90
2571;DHT22;1295;51.130;6.732;2024-01-27T01:14:41;8.30;99.90
2571;DHT22;1295;51.130;6.732;2024-01-27T01:17:07;8.20;99.90
2571;DHT22;1295;51.130;6.732;2024-01-27T01:19:33;8.20;99.90
2571;DHT22;1295;51.130;6.732;2024-01-27T01:21:59;8.20;99.90
2571;DHT22;1295;51.130;6.732;2024-01-27T01:24:24;8.20;99.90
2571;DHT22;1295;51.130;6.732;2024-01-27T01:26:50;8.20;99.90
2571;DHT22;1295;51.130;6.732;2024-01-27T01:29:16;8.20;99.90
2571;DHT22;1295;51.130;6.732;2024-01-27T01:31:42;8.10;99.90
2571;DHT22;1295;51.130;6.732;2024-01-27T01:34:07;8.10;99.90
2571;DHT22;1295;51.130;6.732;2024-01-27T01:36:33;8.20;99.90
2571;DHT22;1295;51.130;6.732;2024-01-27T01:38:59;8.10;99.90
2571;DHT22;1295;51.130;6.732;2024-01-27T01:41:25;8.10;99.90
2571;DHT22;1295;51.130;6.732;2024-01-27T01:43:51;8.10;99.90
2571;DHT22;1295;51.130;6.732;2024-01-27T01:46:17;8.10;99.90
2571;DHT22;1295;51.130;6.732;2024-01-27T01:48:42;8.10;99.90
2571;DHT22;1295;51.130;6.732;2024-01-27T01:51:08;8.10;99.90
2571;DHT22;1295;51.130;6.732;2024-01-27T01:53:33;8.10;99.90
2571;DHT22;1295;51.130;6.732;2024-01-27T01:55:59;8.10;99.90
2571;DHT22;1295;51.130;6.732;2024-01-27T01:58:25;8.10;99.90
2571;DHT22;1295;51.130;6.732;2024-01-27T02:00:50;8.10;99.90
2571;DHT22;1295;51.130;6.732;2024-01-27T02:03:16;8.10;99.90
2571;DHT22;1295;51.130;6.732;2024-01-27T02:05:42;8.00;99.90
2571;DHT22;1295;51.130;6.732;2024-01-27T02:08:07;8.00;99.90
2571;DHT22;1295;51.130;6.732;2024-01-27T02:10:33;8.00;99.90
2571;DHT22;1295;51.130;6.732;2024-01-27T02:12:59;7.90;99.90
2571;DHT22;1295;51.130;6.732;2024-01-27T02:15:24;7.90;99.90
2571;DHT22;1295;51.130;6.732;2024-01-27T02:17:50;8.00;99.90
2571;DHT22;1295;51.130;6.732;2024-01-27T02:20:16;8.00;99.90
2571;DHT22;1295;51.130;6.732;2024-01-27T02:22:41;7.90;99.90
2571;DHT22;1295;51.130;6.732;2024-01-27T02:25:07;7.90;99.90
2571;DHT22;1295;51.130;6.732;2024-01-27T02:27:33;7.90;99.90
2571;DHT22;1295;51.130;6.732;2024-01-27T02:29:59;7.90;99.90
2571;DHT22;1295;51.130;6.732;2024-01-27T02:32:24;7.90;99.90
2571;DHT22;1295;51.130;6.732;2024-01-27T02:34:50;7.90;99.90
2571;DHT22;1295;51.130;6.732;2024-01-27T02:37:15;7.90;99.90
2571;DHT22;1295;51.130;6.732;2024-01-27T02:39:41;7.80;99.90
2571;DHT22;1295;51.130;6.732;2024-01-27T02:42:07;7.80;99.90
2571;DHT22;1295;51.130;6.732;2024-01-27T02:44:33;7.80;99.90
2571;DHT22;1295;51.130;6.732;2024-01-27T02:46:59;7.90;99.90
2571;DHT22;1295;51.130;6.732;2024-01-27T02:49:25;7.80;99.90
2571;DHT22;1295;51.130;6.732;2024-01-27T02:51:51;7.80;99.90
2571;DHT22;1295;51.130;6.732;2024-01-27T02:54:17;7.80;99.90
2571;DHT22;1295;51.130;6.732;2024-01-27T02:56:43;7.80;99.90
2571;DHT22;1295;51.130;6.732;2024-01-27T02:59:09;7.80;99.90
2571;DHT22;1295;51.130;6.732;2024-01-27T03:01:35;7.80;99.90
2571;DHT22;1295;51.130;6.732;2024-01-27T03:04:02;7.70;99.90
2571;DHT22;1295;51.130;6.732;2024-01-27T03:06:27;7.70;99.90
2571;DHT22;1295;51.130;6.732;2024-01-27T03:08:53;7.70;99.90
2571;DHT22;1295;51.130;6.732;2024-01-27T03:11:18;7.70;99.90
2571;DHT22;1295;51.130;6.732;2024-01-27T03:13:44;7.70;99.90
2571;DHT22;1295;51.130;6.732;2024-01-27T03:16:10;7.70;99.90
2571;DHT22;1295;51.130;6.732;2024-01-27T03:18:35;7.70;99.90
2571;DHT22;1295;51.130;6.732;2024-01-27T03:21:01;7.70;99.90
2571;DHT22;1295;51.130;6.732;2024-01-27T03:23:27;7.70;99.90
2571;DHT22;1295;51.130;6.732;2024-01-27T03:25:52;7.70;99.90
2571;DHT22;1295;51.130;6.732;2024-01-27T03:28:18;7.60;99.90
2571;DHT22;1295;51.130;6.732;2024-01-27T03:30:44;7.60;99.90
2571;DHT22;1295;51.130;6.732;2024-01-27T03:33:10;7.60;99.90
2571;DHT22;1295;51.130;6.732;2024-01-27T03:35:41;7.60;99.90
2571;DHT22;1295;51.130;6.732;2024-01-27T03:38:17;7.60;99.90
2571;DHT22;1295;51.130;6.732;2024-01-27T03:40:43;7.60;99.90
2571;DHT22;1295;51.130;6.732;2024-01-27T03:43:08;7.60;99.90
2571;DHT22;1295;51.130;6.732;2024-01-27T03:45:34;7.60;99.90
2571;DHT22;1295;51.130;6.732;2024-01-27T03:47:59;7.50;99.90
2571;DHT22;1295;51.130;6.732;2024-01-27T03:50:25;7.50;99.90
2571;DHT22;1295;51.130;6.732;2024-01-27T03:52:51;7.50;99.90
2571;DHT22;1295;51.130;6.732;2024-01-27T03:55:16;7.50;99.90
2571;DHT22;1295;51.130;6.732;2024-01-27T03:57:42;7.50;99.90
2571;DHT22;1295;51.130;6.732;2024-01-27T04:00:08;7.50;99.90
2571;DHT22;1295;51.130;6.732;2024-01-27T04:02:35;7.50;99.90
2571;DHT22;1295;51.130;6.732;2024-01-27T04:05:00;7.40;99.90
2571;DHT22;1295;51.130;6.732;2024-01-27T04:07:26;7.50;99.90
2571;DHT22;1295;51.130;6.732;2024-01-27T04:09:52;7.40;99.90
2571;DHT22;1295;51.130;6.732;2024-01-27T04:12:17;7.50;99.90
2571;DHT22;1295;51.130;6.732;2024-01-27T04:14:43;7.40;99.90
2571;DHT22;1295;51.130;6.732;2024-01-27T04:17:09;7.40;99.90
2571;DHT22;1295;51.130;6.732;2024-01-27T04:19:34;7.40;99.90
2571;DHT22;1295;51.130;6.732;2024-01-27T04:22:00;7.40;99.90
2571;DHT22;1295;51.130;6.732;2024-01-27T04:24:25;7.40;99.90
2571;DHT22;1295;51.130;6.732;2024-01-27T04:26:51;7.40;99.90
2571;DHT22;1295;51.130;6.732;2024-01-27T04:29:17;7.40;99.90
2571;DHT22;1295;51.130;6.732;2024-01-27T04:31:42;7.30;99.90
2571;DHT22;1295;51.130;6.732;2024-01-27T04:34:08;7.30;99.90
2571;DHT22;1295;51.130;6.732;2024-01-27T04:36:33;7.30;99.90
2571;DHT22;1295;51.130;6.732;2024-01-27T04:38:59;7.30;99.90
2571;DHT22;1295;51.130;6.732;2024-01-27T04:41:25;7.30;99.90
2571;DHT22;1295;51.130;6.732;2024-01-27T04:43:51;7.30;99.90
2571;DHT22;1295;51.130;6.732;2024-01-27T04:46:16;7.30;99.90
2571;DHT22;1295;51.130;6.732;2024-01-27T04:48:42;7.30;99.90
2571;DHT22;1295;51.130;6.732;2024-01-27T04:51:07;7.30;99.90
2571;DHT22;1295;51.130;6.732;2024-01-27T04:53:33;7.20;99.90
2571;DHT22;1295;51.130;6.732;2024-01-27T04:56:00;7.20;99.90
2571;DHT22;1295;51.130;6.732;2024-01-27T04:58:26;7.20;99.90
2571;DHT22;1295;51.130;6.732;2024-01-27T05:00:51;7.20;99.90
2571;DHT22;1295;51.130;6.732;2024-01-27T05:03:18;7.20;99.90
2571;DHT22;1295;51.130;6.732;2024-01-27T05:05:43;7.20;99.90
2571;DHT22;1295;51.130;6.732;2024-01-27T05:08:09;7.20;99.90
2571;DHT22;1295;51.130;6.732;2024-01-27T05:10:35;7.10;99.90
2571;DHT22;1295;51.130;6.732;2024-01-27T05:13:00;7.10;99.90
2571;DHT22;1295;51.130;6.732;2024-01-27T05:15:26;7.10;99.90
2571;DHT22;1295;51.130;6.732;2024-01-27T05:17:52;7.10;99.90
2571;DHT22;1295;51.130;6.732;2024-01-27T05:20:17;7.10;99.90
2571;DHT22;1295;51.130;6.732;2024-01-27T05:22:43;7.10;99.90
2571;DHT22;1295;51.130;6.732;2024-01-27T05:25:09;7.10;99.90
2571;DHT22;1295;51.130;6.732;2024-01-27T05:27:36;7.10;99.90
2571;DHT22;1295;51.130;6.732;2024-01-27T05:30:01;7.00;99.90
2571;DHT22;1295;51.130;6.732;2024-01-27T05:32:27;7.00;99.90
2571;DHT22;1295;51.130;6.732;2024-01-27T05:34:53;7.00;99.90
2571;DHT22;1295;51.130;6.732;2024-01-27T05:37:20;7.00;99.90
2571;DHT22;1295;51.130;6.732;2024-01-27T05:39:45;7.00;99.90
2571;DHT22;1295;51.130;6.732;2024-01-27T05:42:11;7.00;99.90
2571;DHT22;1295;51.130;6.732;2024-01-27T05:44:37;7.00;99.90
2571;DHT22;1295;51.130;6.732;2024-01-27T05:47:03;7.00;99.90
2571;DHT22;1295;51.130;6.732;2024-01-27T05:49:28;6.90;99.90
2571;DHT22;1295;51.130;6.732;2024-01-27T05:51:54;6.90;99.90
2571;DHT22;1295;51.130;6.732;2024-01-27T05:54:20;6.90;99.90
2571;DHT22;1295;51.130;6.732;2024-01-27T05:56:45;6.90;99.90
2571;DHT22;1295;51.130;6.732;2024-01-27T05:59:11;6.90;99.90
2571;DHT22;1295;51.130;6.732;2024-01-27T06:01:37;6.90;99.90
2571;DHT22;1295;51.130;6.732;2024-01-27T06:04:03;6.90;99.90
2571;DHT22;1295;51.130;6.732;2024-01-27T06:06:28;6.90;99.90
2571;DHT22;1295;51.130;6.732;2024-01-27T06:08:54;6.80;99.90
2571;DHT22;1295;51.130;6.732;2024-01-27T06:11:24;6.90;99.90
2571;DHT22;1295;51.130;6.732;2024-01-27T06:13:49;6.80;99.90
2571;DHT22;1295;51.130;6.732;2024-01-27T06:16:15;6.80;99.90
2571;DHT22;1295;51.130;6.732;2024-01-27T06:18:40;6.80;99.90
2571;DHT22;1295;51.130;6.732;2024-01-27T06:21:11;6.80;99.90
2571;DHT22;1295;51.130;6.732;2024-01-27T06:23:47;6.70;99.90
2571;DHT22;1295;51.130;6.732;2024-01-27T06:26:12;6.70;99.90
2571;DHT22;1295;51.130;6.732;2024-01-27T06:28:38;6.70;99.90
2571;DHT22;1295;51.130;6.732;2024-01-27T06:31:04;6.70;99.90
2571;DHT22;1295;51.130;6.732;2024-01-27T06:33:29;6.70;99.90
2571;DHT22;1295;51.130;6.732;2024-01-27T06:35:55;6.70;99.90
2571;DHT22;1295;51.130;6.732;2024-01-27T06:38:21;6.60;99.90
2571;DHT22;1295;51.130;6.732;2024-01-27T06:40:47;6.60;99.90
2571;DHT22;1295;51.130;6.732;2024-01-27T06:43:13;6.60;99.90
2571;DHT22;1295;51.130;6.732;2024-01-27T06:45:38;6.60;99.90
2571;DHT22;1295;51.130;6.732;2024-01-27T06:48:05;6.60;99.90
2571;DHT22;1295;51.130;6.732;2024-01-27T06:50:31;6.60;99.90
2571;DHT22;1295;51.130;6.732;2024-01-27T06:52:57;6.60;99.90
2571;DHT22;1295;51.130;6.732;2024-01-27T06:55:23;6.50;99.90
2571;DHT22;1295;51.130;6.732;2024-01-27T06:57:49;6.50;99.90
2571;DHT22;1295;51.130;6.732;2024-01-27T07:00:16;6.60;99.90
2571;DHT22;1295;51.130;6.732;2024-01-27T07:02:42;6.50;99.90
2571;DHT22;1295;51.130;6.732;2024-01-27T07:05:08;6.50;99.90
2571;DHT22;1295;51.130;6.732;2024-01-27T07:07:34;6.50;99.90
2571;DHT22;1295;51.130;6.732;2024-01-27T07:09:59;6.50;99.90
2571;DHT22;1295;51.130;6.732;2024-01-27T07:12:25;6.50;99.90
2571;DHT22;1295;51.130;6.732;2024-01-27T07:14:50;6.40;99.90
2571;DHT22;1295;51.130;6.732;2024-01-27T07:17:17;6.50;99.90
2571;DHT22;1295;51.130;6.732;2024-01-27T07:19:43;6.40;99.90
2571;DHT22;1295;51.130;6.732;2024-01-27T07:22:09;6.40;99.90
2571;DHT22;1295;51.130;6.732;2024-01-27T07:24:35;6.40;99.90
2571;DHT22;1295;51.130;6.732;2024-01-27T07:27:00;6.40;99.90
2571;DHT22;1295;51.130;6.732;2024-01-27T07:29:26;6.40;99.90
2571;DHT22;1295;51.130;6.732;2024-01-27T07:31:51;6.40;99.90
2571;DHT22;1295;51.130;6.732;2024-01-27T07:34:17;6.40;99.90
2571;DHT22;1295;51.130;6.732;2024-01-27T07:36:43;6.40;99.90
2571;DHT22;1295;51.130;6.732;2024-01-27T07:39:08;6.40;99.90
2571;DHT22;1295;51.130;6.732;2024-01-27T07:41:34;6.40;99.90
2571;DHT22;1295;51.130;6.732;2024-01-27T07:44:06;6.30;99.90
2571;DHT22;1295;51.130;6.732;2024-01-27T07:46:31;6.30;99.90
2571;DHT22;1295;51.130;6.732;2024-01-27T07:48:57;6.30;99.90
2571;DHT22;1295;51.130;6.732;2024-01-27T07:51:23;6.30;99.90
2571;DHT22;1295;51.130;6.732;2024-01-27T07:53:48;6.30;99.90
2571;DHT22;1295;51.130;6.732;2024-01-27T07:56:14;6.30;99.90
2571;DHT22;1295;51.130;6.732;2024-01-27T07:58:40;6.30;99.90
2571;DHT22;1295;51.130;6.732;2024-01-27T08:01:05;6.30;99.90
2571;DHT22;1295;51.130;6.732;2024-01-27T08:03:31;6.20;99.90
2571;DHT22;1295;51.130;6.732;2024-01-27T08:05:57;6.20;99.90
2571;DHT22;1295;51.130;6.732;2024-01-27T08:08:23;6.20;99.90
2571;DHT22;1295;51.130;6.732;2024-01-27T08:10:49;6.20;99.90
2571;DHT22;1295;51.130;6.732;2024-01-27T08:13:15;6.20;99.90
2571;DHT22;1295;51.130;6.732;2024-01-27T08:15:41;6.20;99.90
2571;DHT22;1295;51.130;6.732;2024-01-27T08:18:06;6.20;99.90
2571;DHT22;1295;51.130;6.732;2024-01-27T08:20:32;6.20;99.90
2571;DHT22;1295;51.130;6.732;2024-01-27T08:22:57;6.20;99.90
2571;DHT22;1295;51.130;6.732;2024-01-27T08:25:23;6.20;99.90
2571;DHT22;1295;51.130;6.732;2024-01-27T08:27:49;6.10;99.90
2571;DHT22;1295;51.130;6.732;2024-01-27T08:30:14;6.10;99.90
2571;DHT22;1295;51.130;6.732;2024-01-27T08:32:40;6.10;99.90
2571;DHT22;1295;51.130;6.732;2024-01-27T08:35:07;6.10;99.90
2571;DHT22;1295;51.130;6.732;2024-01-27T08:37:32;6.10;99.90
2571;DHT22;1295;51.130;6.732;2024-01-27T08:39:58;6.10;99.90
2571;DHT22;1295;51.130;6.732;2024-01-27T08:42:24;6.00;99.90
2571;DHT22;1295;51.130;6.732;2024-01-27T08:44:49;6.00;99.90
2571;DHT22;1295;51.130;6.732;2024-01-27T08:47:15;6.00;99.90
2571;DHT22;1295;51.130;6.732;2024-01-27T08:49:41;6.00;99.90
2571;DHT22;1295;51.130;6.732;2024-01-27T08:52:06;6.00;99.90
2571;DHT22;1295;51.130;6.732;2024-01-27T08:54:32;6.00;99.90
2571;DHT22;1295;51.130;6.732;2024-01-27T08:56:58;6.00;99.90
2571;DHT22;1295;51.130;6.732;2024-01-27T08:59:23;6.00;99.90
2571;DHT22;1295;51.130;6.732;2024-01-27T09:01:49;6.00;99.90
2571;DHT22;1295;51.130;6.732;2024-01-27T09:04:15;6.00;99.90
2571;DHT22;1295;51.130;6.732;2024-01-27T09:06:41;5.90;99.90
2571;DHT22;1295;51.130;6.732;2024-01-27T09:09:06;5.90;99.90
2571;DHT22;1295;51.130;6.732;2024-01-27T09:11:32;6.00;99.90
2571;DHT22;1295;51.130;6.732;2024-01-27T09:13:58;5.90;99.90
2571;DHT22;1295;51.130;6.732;2024-01-27T09:16:23;6.00;99.90
2571;DHT22;1295;51.130;6.732;2024-01-27T09:18:49;6.00;99.90
2571;DHT22;1295;51.130;6.732;2024-01-27T09:21:15;5.90;99.90
2571;DHT22;1295;51.130;6.732;2024-01-27T09:23:41;6.10;99.90
2571;DHT22;1295;51.130;6.732;2024-01-27T09:26:12;6.30;99.90
2571;DHT22;1295;51.130;6.732;2024-01-27T09:28:43;6.40;99.90
2571;DHT22;1295;51.130;6.732;2024-01-27T09:31:09;6.40;99.90
2571;DHT22;1295;51.130;6.732;2024-01-27T09:33:35;6.30;99.90
2571;DHT22;1295;51.130;6.732;2024-01-27T09:36:01;6.30;99.90
2571;DHT22;1295;51.130;6.732;2024-01-27T09:38:28;6.40;99.90
2571;DHT22;1295;51.130;6.732;2024-01-27T09:40:53;6.40;99.90
2571;DHT22;1295;51.130;6.732;2024-01-27T09:43:19;6.40;99.90
2571;DHT22;1295;51.130;6.732;2024-01-27T09:45:45;6.50;99.90
2571;DHT22;1295;51.130;6.732;2024-01-27T09:48:10;6.60;99.90
2571;DHT22;1295;51.130;6.732;2024-01-27T09:50:36;6.50;99.90
2571;DHT22;1295;51.130;6.732;2024-01-27T09:53:01;6.60;99.90
2571;DHT22;1295;51.130;6.732;2024-01-27T09:55:27;6.60;99.90
2571;DHT22;1295;51.130;6.732;2024-01-27T09:57:53;6.70;99.90
2571;DHT22;1295;51.130;6.732;2024-01-27T10:00:18;6.80;99.90
2571;DHT22;1295;51.130;6.732;2024-01-27T10:02:45;7.20;99.90
2571;DHT22;1295;51.130;6.732;2024-01-27T10:05:09;7.50;99.90
2571;DHT22;1295;51.130;6.732;2024-01-27T10:07:35;7.60;99.90
2571;DHT22;1295;51.130;6.732;2024-01-27T10:10:01;7.50;99.90
2571;DHT22;1295;51.130;6.732;2024-01-27T10:12:27;7.40;99.90
2571;DHT22;1295;51.130;6.732;2024-01-27T10:14:52;7.40;99.90
2571;DHT22;1295;51.130;6.732;2024-01-27T10:17:20;7.60;99.90
2571;DHT22;1295;51.130;6.732;2024-01-27T10:19:46;7.80;99.90
2571;DHT22;1295;51.130;6.732;2024-01-27T10:22:11;7.70;99.90
2571;DHT22;1295;51.130;6.732;2024-01-27T10:24:37;7.60;99.90
2571;DHT22;1295;51.130;6.732;2024-01-27T10:27:05;7.70;99.90
2571;DHT22;1295;51.130;6.732;2024-01-27T10:29:29;7.80;99.90
2571;DHT22;1295;51.130;6.732;2024-01-27T10:31:55;7.90;99.90
2571;DHT22;1295;51.130;6.732;2024-01-27T10:34:21;8.30;99.90
2571;DHT22;1295;51.130;6.732;2024-01-27T10:36:46;8.30;99.90
2571;DHT22;1295;51.130;6.732;2024-01-27T10:39:21;8.10;99.90
2571;DHT22;1295;51.130;6.732;2024-01-27T10:41:47;8.20;99.90
2571;DHT22;1295;51.130;6.732;2024-01-27T10:44:14;8.30;99.90
2571;DHT22;1295;51.130;6.732;2024-01-27T10:46:39;8.20;99.90
2571;DHT22;1295;51.130;6.732;2024-01-27T10:49:05;8.20;99.90
2571;DHT22;1295;51.130;6.732;2024-01-27T10:51:30;8.40;99.90
2571;DHT22;1295;51.130;6.732;2024-01-27T10:53:59;8.60;99.90
2571;DHT22;1295;51.130;6.732;2024-01-27T10:56:22;8.60;99.90
2571;DHT22;1295;51.130;6.732;2024-01-27T10:58:48;8.40;99.90
2571;DHT22;1295;51.130;6.732;2024-01-27T11:01:14;8.40;99.90
2571;DHT22;1295;51.130;6.732;2024-01-27T11:03:40;8.30;99.90
2571;DHT22;1295;51.130;6.732;2024-01-27T11:06:06;7.90;99.90
2571;DHT22;1295;51.130;6.732;2024-01-27T11:08:31;7.70;99.90
2571;DHT22;1295;51.130;6.732;2024-01-27T11:10:57;7.90;99.90
2571;DHT22;1295;51.130;6.732;2024-01-27T11:13:22;9.10;99.90
2571;DHT22;1295;51.130;6.732;2024-01-27T11:15:51;8.50;99.90
2571;DHT22;1295;51.130;6.732;2024-01-27T11:18:15;8.30;99.90
2571;DHT22;1295;51.130;6.732;2024-01-27T11:20:44;8.30;99.90
2571;DHT22;1295;51.130;6.732;2024-01-27T11:23:09;9.10;99.90
2571;DHT22;1295;51.130;6.732;2024-01-27T11:25:41;8.90;99.90
2571;DHT22;1295;51.130;6.732;2024-01-27T11:28:12;8.90;99.90
2571;DHT22;1295;51.130;6.732;2024-01-27T11:30:38;8.90;99.90
2571;DHT22;1295;51.130;6.732;2024-01-27T11:33:05;8.50;99.90
2571;DHT22;1295;51.130;6.732;2024-01-27T11:35:30;8.50;99.90
2571;DHT22;1295;51.130;6.732;2024-01-27T11:37:57;9.00;99.90
2571;DHT22;1295;51.130;6.732;2024-01-27T11:40:22;9.00;99.90
2571;DHT22;1295;51.130;6.732;2024-01-27T11:42:55;8.90;99.90
2571;DHT22;1295;51.130;6.732;2024-01-27T11:45:20;9.60;99.90
2571;DHT22;1295;51.130;6.732;2024-01-27T11:47:46;9.60;99.90
2571;DHT22;1295;51.130;6.732;2024-01-27T11:50:12;10.00;99.90
2571;DHT22;1295;51.130;6.732;2024-01-27T11:52:42;10.10;99.90
2571;DHT22;1295;51.130;6.732;2024-01-27T11:55:18;9.90;99.90
2571;DHT22;1295;51.130;6.732;2024-01-27T11:57:44;9.60;99.90
2571;DHT22;1295;51.130;6.732;2024-01-27T12:00:10;9.00;99.90
2571;DHT22;1295;51.130;6.732;2024-01-27T12:02:37;9.40;99.90
2571;DHT22;1295;51.130;6.732;2024-01-27T12:05:02;9.40;99.90
2571;DHT22;1295;51.130;6.732;2024-01-27T12:07:28;9.50;99.90
2571;DHT22;1295;51.130;6.732;2024-01-27T12:09:54;11.20;99.90
2571;DHT22;1295;51.130;6.732;2024-01-27T12:12:20;11.20;99.90
2571;DHT22;1295;51.130;6.732;2024-01-27T12:14:48;10.40;99.90
2571;DHT22;1295;51.130;6.732;2024-01-27T12:17:13;10.40;99.90
2571;DHT22;1295;51.130;6.732;2024-01-27T12:19:38;10.50;99.90
2571;DHT22;1295;51.130;6.732;2024-01-27T12:22:04;10.80;99.90
2571;DHT22;1295;51.130;6.732;2024-01-27T12:24:30;11.40;99.90
2571;DHT22;1295;51.130;6.732;2024-01-27T12:26:55;10.50;99.90
2571;DHT22;1295;51.130;6.732;2024-01-27T12:29:23;10.50;99.90
2571;DHT22;1295;51.130;6.732;2024-01-27T12:31:48;10.10;99.90
2571;DHT22;1295;51.130;6.732;2024-01-27T12:34:15;11.10;99.90
2571;DHT22;1295;51.130;6.732;2024-01-27T12:36:42;10.50;99.90
2571;DHT22;1295;51.130;6.732;2024-01-27T12:39:09;10.70;99.90
2571;DHT22;1295;51.130;6.732;2024-01-27T12:41:34;10.70;99.90
2571;DHT22;1295;51.130;6.732;2024-01-27T12:44:01;11.20;99.90
2571;DHT22;1295;51.130;6.732;2024-01-27T12:46:28;11.30;99.90
2571;DHT22;1295;51.130;6.732;2024-01-27T12:48:53;11.30;99.90
2571;DHT22;1295;51.130;6.732;2024-01-27T12:51:19;11.00;99.90
2571;DHT22;1295;51.130;6.732;2024-01-27T12:53:44;11.00;99.90
2571;DHT22;1295;51.130;6.732;2024-01-27T12:56:11;11.20;99.90
2571;DHT22;1295;51.130;6.732;2024-01-27T12:58:36;11.30;99.90
2571;DHT22;1295;51.130;6.732;2024-01-27T13:01:02;11.70;99.90
2571;DHT22;1295;51.130;6.732;2024-01-27T13:03:28;11.70;99.90
2571;DHT22;1295;51.130;6.732;2024-01-27T13:05:55;11.40;99.90
2571;DHT22;1295;51.130;6.732;2024-01-27T13:08:20;11.40;99.90
2571;DHT22;1295;51.130;6.732;2024-01-27T13:10:46;11.30;99.90
2571;DHT22;1295;51.130;6.732;2024-01-27T13:13:12;10.40;99.90
2571;DHT22;1295;51.130;6.732;2024-01-27T13:15:38;10.40;99.90
2571;DHT22;1295;51.130;6.732;2024-01-27T13:18:03;10.70;99.90
2571;DHT22;1295;51.130;6.732;2024-01-27T13:20:29;10.20;99.90
2571;DHT22;1295;51.130;6.732;2024-01-27T13:22:55;11.10;99.90
2571;DHT22;1295;51.130;6.732;2024-01-27T13:25:20;11.50;99.90
2571;DHT22;1295;51.130;6.732;2024-01-27T13:27:46;10.90;99.90
2571;DHT22;1295;51.130;6.732;2024-01-27T13:30:12;10.80;99.90
2571;DHT22;1295;51.130;6.732;2024-01-27T13:32:38;10.40;99.90
2571;DHT22;1295;51.130;6.732;2024-01-27T13:35:08;10.70;99.90
2571;DHT22;1295;51.130;6.732;2024-01-27T13:37:34;9.90;99.90
2571;DHT22;1295;51.130;6.732;2024-01-27T13:40:00;10.20;99.90
2571;DHT22;1295;51.130;6.732;2024-01-27T13:42:26;10.20;99.90
2571;DHT22;1295;51.130;6.732;2024-01-27T13:44:51;10.70;99.90
2571;DHT22;1295;51.130;6.732;2024-01-27T13:47:17;10.90;99.90
2571;DHT22;1295;51.130;6.732;2024-01-27T13:49:43;10.80;99.90
2571;DHT22;1295;51.130;6.732;2024-01-27T13:52:08;9.90;99.90
2571;DHT22;1295;51.130;6.732;2024-01-27T13:54:35;9.50;99.90
2571;DHT22;1295;51.130;6.732;2024-01-27T13:57:01;9.50;99.90
2571;DHT22;1295;51.130;6.732;2024-01-27T13:59:27;9.40;99.90
2571;DHT22;1295;51.130;6.732;2024-01-27T14:01:53;9.80;99.90
2571;DHT22;1295;51.130;6.732;2024-01-27T14:04:18;9.80;99.90
2571;DHT22;1295;51.130;6.732;2024-01-27T14:06:44;9.80;99.90
2571;DHT22;1295;51.130;6.732;2024-01-27T14:09:09;9.90;99.90
2571;DHT22;1295;51.130;6.732;2024-01-27T14:11:36;9.00;99.90
2571;DHT22;1295;51.130;6.732;2024-01-27T14:14:01;9.00;99.90
2571;DHT22;1295;51.130;6.732;2024-01-27T14:16:27;9.00;99.90
2571;DHT22;1295;51.130;6.732;2024-01-27T14:18:53;9.10;99.90
2571;DHT22;1295;51.130;6.732;2024-01-27T14:21:18;9.20;99.90
2571;DHT22;1295;51.130;6.732;2024-01-27T14:23:44;9.60;99.90
2571;DHT22;1295;51.130;6.732;2024-01-27T14:26:09;9.70;99.90
2571;DHT22;1295;51.130;6.732;2024-01-27T14:28:35;9.50;99.90
2571;DHT22;1295;51.130;6.732;2024-01-27T14:31:01;9.50;99.90
2571;DHT22;1295;51.130;6.732;2024-01-27T14:33:26;9.90;99.90
2571;DHT22;1295;51.130;6.732;2024-01-27T14:35:52;10.40;99.90
2571;DHT22;1295;51.130;6.732;2024-01-27T14:38:17;9.90;99.90
2571;DHT22;1295;51.130;6.732;2024-01-27T14:40:43;9.90;99.90
2571;DHT22;1295;51.130;6.732;2024-01-27T14:43:09;9.60;99.90
2571;DHT22;1295;51.130;6.732;2024-01-27T14:45:34;9.80;99.90
2571;DHT22;1295;51.130;6.732;2024-01-27T14:48:01;9.70;99.90
2571;DHT22;1295;51.130;6.732;2024-01-27T14:50:26;9.50;99.90
2571;DHT22;1295;51.130;6.732;2024-01-27T14:52:52;9.40;99.90
2571;DHT22;1295;51.130;6.732;2024-01-27T14:55:18;9.40;99.90
2571;DHT22;1295;51.130;6.732;2024-01-27T14:57:43;9.70;99.90
2571;DHT22;1295;51.130;6.732;2024-01-27T15:00:10;9.70;99.90
2571;DHT22;1295;51.130;6.732;2024-01-27T15:02:36;9.40;99.90
2571;DHT22;1295;51.130;6.732;2024-01-27T15:05:01;9.40;99.90
2571;DHT22;1295;51.130;6.732;2024-01-27T15:07:27;9.30;99.90
2571;DHT22;1295;51.130;6.732;2024-01-27T15:09:54;9.20;99.90
2571;DHT22;1295;51.130;6.732;2024-01-27T15:12:19;9.20;99.90
2571;DHT22;1295;51.130;6.732;2024-01-27T15:14:45;9.20;99.90
2571;DHT22;1295;51.130;6.732;2024-01-27T15:17:11;9.10;99.90
2571;DHT22;1295;51.130;6.732;2024-01-27T15:19:38;9.20;99.90
2571;DHT22;1295;51.130;6.732;2024-01-27T15:22:03;9.10;99.90
2571;DHT22;1295;51.130;6.732;2024-01-27T15:24:29;9.10;99.90
2571;DHT22;1295;51.130;6.732;2024-01-27T15:26:55;9.10;99.90
2571;DHT22;1295;51.130;6.732;2024-01-27T15:29:20;9.00;99.90
2571;DHT22;1295;51.130;6.732;2024-01-27T15:31:46;9.00;99.90
2571;DHT22;1295;51.130;6.732;2024-01-27T15:34:11;9.00;99.90
2571;DHT22;1295;51.130;6.732;2024-01-27T15:36:37;9.00;99.90
2571;DHT22;1295;51.130;6.732;2024-01-27T15:39:03;9.00;99.90
2571;DHT22;1295;51.130;6.732;2024-01-27T15:41:28;8.90;99.90
2571;DHT22;1295;51.130;6.732;2024-01-27T15:43:54;8.90;99.90
2571;DHT22;1295;51.130;6.732;2024-01-27T15:46:20;8.90;99.90
2571;DHT22;1295;51.130;6.732;2024-01-27T15:48:46;8.80;99.90
2571;DHT22;1295;51.130;6.732;2024-01-27T15:51:12;8.80;99.90
2571;DHT22;1295;51.130;6.732;2024-01-27T15:53:37;8.80;99.90
2571;DHT22;1295;51.130;6.732;2024-01-27T15:56:04;8.80;99.90
2571;DHT22;1295;51.130;6.732;2024-01-27T15:58:29;8.70;99.90
2571;DHT22;1295;51.130;6.732;2024-01-27T16:00:55;8.70;99.90
2571;DHT22;1295;51.130;6.732;2024-01-27T16:03:20;8.70;99.90
2571;DHT22;1295;51.130;6.732;2024-01-27T16:05:47;8.70;99.90
2571;DHT22;1295;51.130;6.732;2024-01-27T16:08:13;8.70;99.90